Morro Grande, Brazil
Current Conditions -  °F | °C
As of 3:00 PM on Monday 24 Nov 2014 (Local Time) from SBCM Reporting Station
Clear Clear  
Wind Chill: 91°   Ceiling: Unl
Heat Index: 94°   Visibility: 6mi
Dew Point: 66°   Wind: 7mph
Humidity: 43%   Direction: 80°E
Pressure: 29.85"   Gusts: NA
Location:  28.8°S, 49.72°W
Report Text: SBCM 241700Z 08006KT 010V150 CAVOK 33/19 Q1011
Loading
Personal Weather Stations






























Interactive Weather Map New forecast layout! Learn more

10-Day Weather Forecast

Advertisements
Track Severe Weather on mobile